sensor_id;sensor_type;location;lat;lon;timestamp;temperature;humidity
43528;DHT22;52359;42.658;23.320;2022-07-23T00:00:55;20.90;93.90
43528;DHT22;52359;42.658;23.320;2022-07-23T00:03:20;20.90;93.80
43528;DHT22;52359;42.658;23.320;2022-07-23T00:05:46;20.90;93.60
43528;DHT22;52359;42.658;23.320;2022-07-23T00:08:12;20.80;93.50
43528;DHT22;52359;42.658;23.320;2022-07-23T00:10:37;20.90;93.70
43528;DHT22;52359;42.658;23.320;2022-07-23T00:13:03;20.90;95.00
43528;DHT22;52359;42.658;23.320;2022-07-23T00:15:29;20.90;95.10
43528;DHT22;52359;42.658;23.320;2022-07-23T00:37:36;20.40;93.90
43528;DHT22;52359;42.658;23.320;2022-07-23T00:40:02;20.50;93.90
43528;DHT22;52359;42.658;23.320;2022-07-23T00:42:28;20.60;94.00
43528;DHT22;52359;42.658;23.320;2022-07-23T00:44:53;20.70;93.30
43528;DHT22;52359;42.658;23.320;2022-07-23T00:47:19;20.50;93.90
43528;DHT22;52359;42.658;23.320;2022-07-23T00:49:45;20.70;93.90
43528;DHT22;52359;42.658;23.320;2022-07-23T00:52:10;20.70;93.80
43528;DHT22;52359;42.658;23.320;2022-07-23T00:54:36;20.60;94.00
43528;DHT22;52359;42.658;23.320;2022-07-23T00:57:02;20.60;93.90
43528;DHT22;52359;42.658;23.320;2022-07-23T00:59:28;20.40;93.80
43528;DHT22;52359;42.658;23.320;2022-07-23T01:01:54;20.30;93.80
43528;DHT22;52359;42.658;23.320;2022-07-23T01:04:19;20.40;94.00
43528;DHT22;52359;42.658;23.320;2022-07-23T01:06:45;20.40;94.10
43528;DHT22;52359;42.658;23.320;2022-07-23T01:09:12;20.30;94.20
43528;DHT22;52359;42.658;23.320;2022-07-23T01:11:38;20.30;94.20
43528;DHT22;52359;42.658;23.320;2022-07-23T01:14:15;20.10;94.60
43528;DHT22;52359;42.658;23.320;2022-07-23T01:16:42;20.20;94.80
43528;DHT22;52359;42.658;23.320;2022-07-23T01:19:08;19.90;95.00
43528;DHT22;52359;42.658;23.320;2022-07-23T01:21:39;19.90;95.20
43528;DHT22;52359;42.658;23.320;2022-07-23T01:24:06;20.00;95.40
43528;DHT22;52359;42.658;23.320;2022-07-23T01:26:32;20.10;95.40
43528;DHT22;52359;42.658;23.320;2022-07-23T01:28:58;19.90;95.10
43528;DHT22;52359;42.658;23.320;2022-07-23T01:33:50;19.80;94.80
43528;DHT22;52359;42.658;23.320;2022-07-23T01:36:16;20.00;95.40
43528;DHT22;52359;42.658;23.320;2022-07-23T01:38:42;20.00;96.00
43528;DHT22;52359;42.658;23.320;2022-07-23T01:41:07;19.90;98.60
43528;DHT22;52359;42.658;23.320;2022-07-23T01:43:33;19.90;96.20
43528;DHT22;52359;42.658;23.320;2022-07-23T01:50:51;19.80;94.20
43528;DHT22;52359;42.658;23.320;2022-07-23T01:53:17;19.80;95.30
43528;DHT22;52359;42.658;23.320;2022-07-23T01:55:43;20.00;95.40
43528;DHT22;52359;42.658;23.320;2022-07-23T01:58:09;19.90;95.00
43528;DHT22;52359;42.658;23.320;2022-07-23T02:00:34;19.80;95.30
43528;DHT22;52359;42.658;23.320;2022-07-23T02:03:00;19.80;95.40
43528;DHT22;52359;42.658;23.320;2022-07-23T02:05:26;19.80;95.50
43528;DHT22;52359;42.658;23.320;2022-07-23T02:07:54;19.60;95.90
43528;DHT22;52359;42.658;23.320;2022-07-23T02:10:22;19.50;97.20
43528;DHT22;52359;42.658;23.320;2022-07-23T02:17:40;19.60;97.40
43528;DHT22;52359;42.658;23.320;2022-07-23T04:26:57;19.20;99.90
43528;DHT22;52359;42.658;23.320;2022-07-23T04:29:23;19.60;99.90
43528;DHT22;52359;42.658;23.320;2022-07-23T04:31:49;19.50;99.90
43528;DHT22;52359;42.658;23.320;2022-07-23T04:34:15;19.60;99.70
43528;DHT22;52359;42.658;23.320;2022-07-23T04:36:40;19.60;99.90
43528;DHT22;52359;42.658;23.320;2022-07-23T04:39:06;19.70;99.90
43528;DHT22;52359;42.658;23.320;2022-07-23T04:41:32;19.90;99.90
43528;DHT22;52359;42.658;23.320;2022-07-23T04:46:24;19.80;99.90
43528;DHT22;52359;42.658;23.320;2022-07-23T04:51:16;20.10;99.90
43528;DHT22;52359;42.658;23.320;2022-07-23T04:53:41;20.20;99.10
43528;DHT22;52359;42.658;23.320;2022-07-23T04:56:07;20.20;98.00
43528;DHT22;52359;42.658;23.320;2022-07-23T04:58:33;20.30;98.00
43528;DHT22;52359;42.658;23.320;2022-07-23T05:03:25;20.20;97.70
43528;DHT22;52359;42.658;23.320;2022-07-23T05:05:51;20.40;97.70
43528;DHT22;52359;42.658;23.320;2022-07-23T05:08:16;20.40;97.70
43528;DHT22;52359;42.658;23.320;2022-07-23T05:10:42;20.40;97.70
43528;DHT22;52359;42.658;23.320;2022-07-23T05:15:34;20.60;96.30
43528;DHT22;52359;42.658;23.320;2022-07-23T05:17:59;20.70;96.40
43528;DHT22;52359;42.658;23.320;2022-07-23T05:25:18;20.70;96.60
43528;DHT22;52359;42.658;23.320;2022-07-23T05:27:43;20.80;96.70
43528;DHT22;52359;42.658;23.320;2022-07-23T05:30:10;20.90;96.00
43528;DHT22;52359;42.658;23.320;2022-07-23T05:32:35;21.00;95.90
43528;DHT22;52359;42.658;23.320;2022-07-23T05:35:03;21.10;96.20
43528;DHT22;52359;42.658;23.320;2022-07-23T05:42:21;21.10;95.60
43528;DHT22;52359;42.658;23.320;2022-07-23T05:44:47;21.20;95.50
43528;DHT22;52359;42.658;23.320;2022-07-23T05:47:12;21.10;95.90
43528;DHT22;52359;42.658;23.320;2022-07-23T06:01:49;21.40;96.80
43528;DHT22;52359;42.658;23.320;2022-07-23T06:04:15;21.60;96.40
43528;DHT22;52359;42.658;23.320;2022-07-23T06:06:40;21.70;96.20
43528;DHT22;52359;42.658;23.320;2022-07-23T06:09:06;21.90;96.30
43528;DHT22;52359;42.658;23.320;2022-07-23T06:11:32;21.90;97.40
43528;DHT22;52359;42.658;23.320;2022-07-23T08:05:58;26.10;90.30
43528;DHT22;52359;42.658;23.320;2022-07-23T08:08:24;26.20;90.10
43528;DHT22;52359;42.658;23.320;2022-07-23T08:10:50;26.30;89.90
43528;DHT22;52359;42.658;23.320;2022-07-23T08:13:16;26.40;90.10
43528;DHT22;52359;42.658;23.320;2022-07-23T08:37:51;27.80;88.20
43528;DHT22;52359;42.658;23.320;2022-07-23T08:40:17;28.00;86.40
43528;DHT22;52359;42.658;23.320;2022-07-23T08:42:46;28.10;87.20
43528;DHT22;52359;42.658;23.320;2022-07-23T08:45:12;28.20;88.70
43528;DHT22;52359;42.658;23.320;2022-07-23T08:47:40;28.40;87.20
43528;DHT22;52359;42.658;23.320;2022-07-23T08:50:07;28.50;86.10
43528;DHT22;52359;42.658;23.320;2022-07-23T08:52:34;28.70;86.40
43528;DHT22;52359;42.658;23.320;2022-07-23T08:55:01;28.80;86.10
43528;DHT22;52359;42.658;23.320;2022-07-23T08:57:27;28.90;84.80
43528;DHT22;52359;42.658;23.320;2022-07-23T08:59:53;29.10;84.70
43528;DHT22;52359;42.658;23.320;2022-07-23T09:02:18;29.20;84.40
43528;DHT22;52359;42.658;23.320;2022-07-23T09:04:44;29.20;81.90
43528;DHT22;52359;42.658;23.320;2022-07-23T09:07:10;29.20;82.80
43528;DHT22;52359;42.658;23.320;2022-07-23T09:09:35;29.40;81.40
43528;DHT22;52359;42.658;23.320;2022-07-23T11:59:31;36.70;49.30
43528;DHT22;52359;42.658;23.320;2022-07-23T12:01:58;36.60;49.40
43528;DHT22;52359;42.658;23.320;2022-07-23T12:04:36;36.50;49.20
43528;DHT22;52359;42.658;23.320;2022-07-23T12:07:02;36.60;48.60
43528;DHT22;52359;42.658;23.320;2022-07-23T12:09:28;36.70;49.20
43528;DHT22;52359;42.658;23.320;2022-07-23T12:11:58;36.70;47.90
43528;DHT22;52359;42.658;23.320;2022-07-23T12:14:24;36.80;48.40
43528;DHT22;52359;42.658;23.320;2022-07-23T12:17:07;36.80;47.40
43528;DHT22;52359;42.658;23.320;2022-07-23T12:19:33;36.80;47.50
43528;DHT22;52359;42.658;23.320;2022-07-23T12:21:59;36.80;48.90
43528;DHT22;52359;42.658;23.320;2022-07-23T12:24:24;36.90;47.20
43528;DHT22;52359;42.658;23.320;2022-07-23T12:27:10;36.90;46.50
43528;DHT22;52359;42.658;23.320;2022-07-23T12:29:36;36.90;46.00
43528;DHT22;52359;42.658;23.320;2022-07-23T12:32:15;37.00;45.50
43528;DHT22;52359;42.658;23.320;2022-07-23T12:34:42;37.00;46.00
43528;DHT22;52359;42.658;23.320;2022-07-23T12:37:07;37.00;45.20
43528;DHT22;52359;42.658;23.320;2022-07-23T12:39:33;37.20;46.80
43528;DHT22;52359;42.658;23.320;2022-07-23T12:41:59;37.00;45.30
43528;DHT22;52359;42.658;23.320;2022-07-23T12:44:25;37.20;47.00
43528;DHT22;52359;42.658;23.320;2022-07-23T12:46:52;37.30;47.20
43528;DHT22;52359;42.658;23.320;2022-07-23T12:49:28;37.30;46.60
43528;DHT22;52359;42.658;23.320;2022-07-23T12:51:53;37.40;45.30
43528;DHT22;52359;42.658;23.320;2022-07-23T12:54:26;37.30;46.30
43528;DHT22;52359;42.658;23.320;2022-07-23T12:56:53;37.20;45.70
43528;DHT22;52359;42.658;23.320;2022-07-23T12:59:19;37.30;46.90
43528;DHT22;52359;42.658;23.320;2022-07-23T13:01:56;37.30;45.30
43528;DHT22;52359;42.658;23.320;2022-07-23T13:04:25;37.30;43.80
43528;DHT22;52359;42.658;23.320;2022-07-23T13:06:53;37.40;44.50
43528;DHT22;52359;42.658;23.320;2022-07-23T13:09:22;37.30;44.50
43528;DHT22;52359;42.658;23.320;2022-07-23T13:11:49;37.30;44.60
43528;DHT22;52359;42.658;23.320;2022-07-23T13:14:16;37.20;44.00
43528;DHT22;52359;42.658;23.320;2022-07-23T13:16:44;37.30;44.40
43528;DHT22;52359;42.658;23.320;2022-07-23T13:19:10;37.40;45.10
43528;DHT22;52359;42.658;23.320;2022-07-23T13:21:36;37.40;45.00
43528;DHT22;52359;42.658;23.320;2022-07-23T13:24:02;37.40;44.80
43528;DHT22;52359;42.658;23.320;2022-07-23T13:26:28;37.40;44.00
43528;DHT22;52359;42.658;23.320;2022-07-23T13:28:54;37.40;43.30
43528;DHT22;52359;42.658;23.320;2022-07-23T13:31:20;37.40;43.80
43528;DHT22;52359;42.658;23.320;2022-07-23T13:33:46;37.40;46.80
43528;DHT22;52359;42.658;23.320;2022-07-23T13:36:12;37.50;44.40
43528;DHT22;52359;42.658;23.320;2022-07-23T13:38:38;37.50;44.40
43528;DHT22;52359;42.658;23.320;2022-07-23T13:41:04;37.50;43.30
43528;DHT22;52359;42.658;23.320;2022-07-23T13:43:30;37.40;44.30
43528;DHT22;52359;42.658;23.320;2022-07-23T13:45:56;37.40;44.20
43528;DHT22;52359;42.658;23.320;2022-07-23T13:48:22;37.30;44.20
43528;DHT22;52359;42.658;23.320;2022-07-23T13:50:49;37.30;45.40
43528;DHT22;52359;42.658;23.320;2022-07-23T13:53:17;37.40;45.60
43528;DHT22;52359;42.658;23.320;2022-07-23T13:55:44;37.30;43.90
43528;DHT22;52359;42.658;23.320;2022-07-23T13:58:10;37.20;44.90
43528;DHT22;52359;42.658;23.320;2022-07-23T14:00:39;37.20;44.70
43528;DHT22;52359;42.658;23.320;2022-07-23T14:03:06;37.10;46.30
43528;DHT22;52359;42.658;23.320;2022-07-23T14:05:32;37.10;47.40
43528;DHT22;52359;42.658;23.320;2022-07-23T14:07:58;37.10;48.30
43528;DHT22;52359;42.658;23.320;2022-07-23T14:22:37;36.80;49.60
43528;DHT22;52359;42.658;23.320;2022-07-23T14:44:35;36.30;50.20
43528;DHT22;52359;42.658;23.320;2022-07-23T14:47:01;36.20;51.20
43528;DHT22;52359;42.658;23.320;2022-07-23T14:49:28;36.10;49.70
43528;DHT22;52359;42.658;23.320;2022-07-23T14:51:54;36.00;49.60
43528;DHT22;52359;42.658;23.320;2022-07-23T15:09:01;35.60;47.60
43528;DHT22;52359;42.658;23.320;2022-07-23T15:21:14;34.80;58.60
43528;DHT22;52359;42.658;23.320;2022-07-23T15:23:40;35.30;52.60
43528;DHT22;52359;42.658;23.320;2022-07-23T15:26:06;35.20;50.00
43528;DHT22;52359;42.658;23.320;2022-07-23T15:28:33;35.10;50.60
43528;DHT22;52359;42.658;23.320;2022-07-23T15:30:59;35.00;51.40
43528;DHT22;52359;42.658;23.320;2022-07-23T15:33:25;35.00;54.90
43528;DHT22;52359;42.658;23.320;2022-07-23T16:27:19;33.40;62.50
43528;DHT22;52359;42.658;23.320;2022-07-23T16:29:45;33.40;58.80
43528;DHT22;52359;42.658;23.320;2022-07-23T16:32:10;33.30;59.30
43528;DHT22;52359;42.658;23.320;2022-07-23T17:11:08;32.30;61.30
43528;DHT22;52359;42.658;23.320;2022-07-23T17:13:34;32.20;62.10
43528;DHT22;52359;42.658;23.320;2022-07-23T17:20:52;32.00;66.30
43528;DHT22;52359;42.658;23.320;2022-07-23T17:25:44;31.80;64.50
43528;DHT22;52359;42.658;23.320;2022-07-23T17:28:10;31.80;64.50
43528;DHT22;52359;42.658;23.320;2022-07-23T17:30:35;31.80;64.70
43528;DHT22;52359;42.658;23.320;2022-07-23T18:31:50;30.10;72.90
43528;DHT22;52359;42.658;23.320;2022-07-23T18:58:38;28.70;75.60
43528;DHT22;52359;42.658;23.320;2022-07-23T19:13:15;27.90;69.90
43528;DHT22;52359;42.658;23.320;2022-07-23T19:15:41;27.90;68.90
43528;DHT22;52359;42.658;23.320;2022-07-23T19:18:07;27.90;69.60
43528;DHT22;52359;42.658;23.320;2022-07-23T19:20:33;27.90;71.60
43528;DHT22;52359;42.658;23.320;2022-07-23T19:22:58;28.20;71.10
43528;DHT22;52359;42.658;23.320;2022-07-23T19:25:24;27.70;73.00
43528;DHT22;52359;42.658;23.320;2022-07-23T19:27:50;27.60;73.00
43528;DHT22;52359;42.658;23.320;2022-07-23T19:30:16;27.50;72.90
43528;DHT22;52359;42.658;23.320;2022-07-23T19:32:41;27.40;72.60
43528;DHT22;52359;42.658;23.320;2022-07-23T19:35:08;27.40;73.60
43528;DHT22;52359;42.658;23.320;2022-07-23T19:37:34;27.50;77.00
43528;DHT22;52359;42.658;23.320;2022-07-23T19:40:00;27.20;78.30
43528;DHT22;52359;42.658;23.320;2022-07-23T19:42:29;27.10;79.60
43528;DHT22;52359;42.658;23.320;2022-07-23T19:44:55;27.10;80.60
43528;DHT22;52359;42.658;23.320;2022-07-23T21:10:12;26.20;83.40
43528;DHT22;52359;42.658;23.320;2022-07-23T21:12:38;26.10;82.60
43528;DHT22;52359;42.658;23.320;2022-07-23T21:15:05;26.30;83.50
43528;DHT22;52359;42.658;23.320;2022-07-23T21:17:31;26.10;82.70
43528;DHT22;52359;42.658;23.320;2022-07-23T21:19:57;26.20;84.00
43528;DHT22;52359;42.658;23.320;2022-07-23T21:22:22;26.10;85.20
43528;DHT22;52359;42.658;23.320;2022-07-23T21:24:48;26.30;84.40
43528;DHT22;52359;42.658;23.320;2022-07-23T21:27:14;26.10;84.60
43528;DHT22;52359;42.658;23.320;2022-07-23T21:29:41;26.30;84.50
43528;DHT22;52359;42.658;23.320;2022-07-23T23:07:07;22.90;87.30
43528;DHT22;52359;42.658;23.320;2022-07-23T23:09:32;22.80;87.60
43528;DHT22;52359;42.658;23.320;2022-07-23T23:11:58;22.70;88.00
43528;DHT22;52359;42.658;23.320;2022-07-23T23:14:24;22.90;88.40
43528;DHT22;52359;42.658;23.320;2022-07-23T23:16:50;22.70;89.20
43528;DHT22;52359;42.658;23.320;2022-07-23T23:19:34;22.80;90.10
43528;DHT22;52359;42.658;23.320;2022-07-23T23:22:00;22.60;90.50
43528;DHT22;52359;42.658;23.320;2022-07-23T23:24:26;22.50;91.10
43528;DHT22;52359;42.658;23.320;2022-07-23T23:26:52;22.70;90.70
43528;DHT22;52359;42.658;23.320;2022-07-23T23:29:18;22.70;90.70
43528;DHT22;52359;42.658;23.320;2022-07-23T23:31:43;22.60;91.10
43528;DHT22;52359;42.658;23.320;2022-07-23T23:34:09;22.40;91.80
43528;DHT22;52359;42.658;23.320;2022-07-23T23:36:35;22.50;92.20
